sensor_id;sensor_type;location;lat;lon;timestamp;P1;durP1;ratioP1;P2;durP2;ratioP2
76194;SDS011;64964;48.694;21.206;2023-08-31T00:00:29;10.50;;;5.15;;
76194;SDS011;64964;48.694;21.206;2023-08-31T00:02:54;8.70;;;4.55;;
76194;SDS011;64964;48.694;21.206;2023-08-31T00:05:20;9.87;;;4.77;;
76194;SDS011;64964;48.694;21.206;2023-08-31T00:07:45;9.43;;;4.78;;
76194;SDS011;64964;48.694;21.206;2023-08-31T00:10:11;9.53;;;5.90;;
76194;SDS011;64964;48.694;21.206;2023-08-31T00:12:37;12.27;;;5.72;;
76194;SDS011;64964;48.694;21.206;2023-08-31T00:15:03;13.47;;;6.40;;
76194;SDS011;64964;48.694;21.206;2023-08-31T00:17:29;14.93;;;6.35;;
76194;SDS011;64964;48.694;21.206;2023-08-31T00:19:55;13.65;;;6.45;;
76194;SDS011;64964;48.694;21.206;2023-08-31T00:22:20;14.33;;;5.83;;
76194;SDS011;64964;48.694;21.206;2023-08-31T00:24:46;11.47;;;6.20;;
76194;SDS011;64964;48.694;21.206;2023-08-31T00:27:11;11.17;;;5.77;;
76194;SDS011;64964;48.694;21.206;2023-08-31T00:29:40;12.50;;;6.03;;
76194;SDS011;64964;48.694;21.206;2023-08-31T00:32:05;12.27;;;5.63;;
76194;SDS011;64964;48.694;21.206;2023-08-31T00:34:31;13.00;;;6.33;;
76194;SDS011;64964;48.694;21.206;2023-08-31T00:36:56;10.50;;;5.53;;
76194;SDS011;64964;48.694;21.206;2023-08-31T00:39:21;12.90;;;7.30;;
76194;SDS011;64964;48.694;21.206;2023-08-31T00:41:47;9.40;;;6.13;;
76194;SDS011;64964;48.694;21.206;2023-08-31T00:44:12;10.93;;;6.30;;
76194;SDS011;64964;48.694;21.206;2023-08-31T00:46:38;10.03;;;5.97;;
76194;SDS011;64964;48.694;21.206;2023-08-31T00:49:05;13.48;;;7.03;;
76194;SDS011;64964;48.694;21.206;2023-08-31T00:51:30;12.17;;;7.07;;
76194;SDS011;64964;48.694;21.206;2023-08-31T00:53:56;13.97;;;6.30;;
76194;SDS011;64964;48.694;21.206;2023-08-31T00:56:24;8.07;;;5.68;;
76194;SDS011;64964;48.694;21.206;2023-08-31T00:58:49;12.80;;;6.00;;
76194;SDS011;64964;48.694;21.206;2023-08-31T01:01:25;12.50;;;6.63;;
76194;SDS011;64964;48.694;21.206;2023-08-31T01:04:25;10.40;;;6.30;;
76194;SDS011;64964;48.694;21.206;2023-08-31T01:09:34;12.98;;;6.18;;
76194;SDS011;64964;48.694;21.206;2023-08-31T01:12:09;9.23;;;5.30;;
76194;SDS011;64964;48.694;21.206;2023-08-31T01:14:42;11.73;;;6.30;;
76194;SDS011;64964;48.694;21.206;2023-08-31T01:17:11;8.93;;;5.00;;
76194;SDS011;64964;48.694;21.206;2023-08-31T01:19:50;12.13;;;6.45;;
76194;SDS011;64964;48.694;21.206;2023-08-31T01:24:52;16.27;;;7.78;;
76194;SDS011;64964;48.694;21.206;2023-08-31T01:27:18;10.63;;;6.30;;
76194;SDS011;64964;48.694;21.206;2023-08-31T01:29:43;14.10;;;7.53;;
76194;SDS011;64964;48.694;21.206;2023-08-31T01:32:09;15.63;;;7.27;;
76194;SDS011;64964;48.694;21.206;2023-08-31T01:34:34;15.27;;;7.57;;
76194;SDS011;64964;48.694;21.206;2023-08-31T01:37:00;15.57;;;8.67;;
76194;SDS011;64964;48.694;21.206;2023-08-31T01:39:37;15.65;;;9.20;;
76194;SDS011;64964;48.694;21.206;2023-08-31T01:42:11;20.23;;;8.60;;
76194;SDS011;64964;48.694;21.206;2023-08-31T01:44:38;16.75;;;8.75;;
76194;SDS011;64964;48.694;21.206;2023-08-31T01:47:05;12.90;;;7.10;;
76194;SDS011;64964;48.694;21.206;2023-08-31T01:49:38;12.30;;;6.93;;
76194;SDS011;64964;48.694;21.206;2023-08-31T01:52:04;16.20;;;8.27;;
76194;SDS011;64964;48.694;21.206;2023-08-31T01:54:30;13.95;;;8.20;;
76194;SDS011;64964;48.694;21.206;2023-08-31T01:56:56;14.20;;;8.75;;
76194;SDS011;64964;48.694;21.206;2023-08-31T01:59:21;14.40;;;7.80;;
76194;SDS011;64964;48.694;21.206;2023-08-31T02:01:46;15.53;;;7.53;;
76194;SDS011;64964;48.694;21.206;2023-08-31T02:04:12;12.93;;;7.55;;
76194;SDS011;64964;48.694;21.206;2023-08-31T02:06:38;15.80;;;7.50;;
76194;SDS011;64964;48.694;21.206;2023-08-31T02:09:03;11.17;;;7.00;;
76194;SDS011;64964;48.694;21.206;2023-08-31T02:11:28;10.00;;;6.85;;
76194;SDS011;64964;48.694;21.206;2023-08-31T02:13:54;12.30;;;6.63;;
76194;SDS011;64964;48.694;21.206;2023-08-31T02:16:19;11.47;;;7.00;;
76194;SDS011;64964;48.694;21.206;2023-08-31T02:18:45;13.30;;;6.97;;
76194;SDS011;64964;48.694;21.206;2023-08-31T02:21:10;11.52;;;6.43;;
76194;SDS011;64964;48.694;21.206;2023-08-31T02:23:35;10.40;;;5.87;;
76194;SDS011;64964;48.694;21.206;2023-08-31T02:26:01;12.30;;;6.30;;
76194;SDS011;64964;48.694;21.206;2023-08-31T02:28:26;9.17;;;6.37;;
76194;SDS011;64964;48.694;21.206;2023-08-31T02:30:58;8.93;;;6.47;;
76194;SDS011;64964;48.694;21.206;2023-08-31T02:33:24;10.65;;;6.28;;
76194;SDS011;64964;48.694;21.206;2023-08-31T02:35:50;10.50;;;6.60;;
76194;SDS011;64964;48.694;21.206;2023-08-31T02:38:15;10.57;;;6.10;;
76194;SDS011;64964;48.694;21.206;2023-08-31T02:40:41;11.27;;;6.23;;
76194;SDS011;64964;48.694;21.206;2023-08-31T02:43:06;10.88;;;6.57;;
76194;SDS011;64964;48.694;21.206;2023-08-31T02:45:32;10.33;;;6.20;;
76194;SDS011;64964;48.694;21.206;2023-08-31T02:47:57;11.73;;;6.60;;
76194;SDS011;64964;48.694;21.206;2023-08-31T02:50:23;13.68;;;6.13;;
76194;SDS011;64964;48.694;21.206;2023-08-31T02:52:48;13.00;;;6.97;;
76194;SDS011;64964;48.694;21.206;2023-08-31T02:55:13;11.33;;;7.03;;
76194;SDS011;64964;48.694;21.206;2023-08-31T02:57:39;10.07;;;6.03;;
76194;SDS011;64964;48.694;21.206;2023-08-31T03:00:04;10.43;;;6.77;;
76194;SDS011;64964;48.694;21.206;2023-08-31T03:02:35;9.90;;;6.87;;
76194;SDS011;64964;48.694;21.206;2023-08-31T03:05:00;11.40;;;6.50;;
76194;SDS011;64964;48.694;21.206;2023-08-31T03:07:26;11.60;;;6.23;;
76194;SDS011;64964;48.694;21.206;2023-08-31T03:09:52;8.20;;;5.47;;
76194;SDS011;64964;48.694;21.206;2023-08-31T03:12:17;10.73;;;6.50;;
76194;SDS011;64964;48.694;21.206;2023-08-31T03:14:42;7.37;;;5.10;;
76194;SDS011;64964;48.694;21.206;2023-08-31T03:17:08;8.90;;;5.80;;
76194;SDS011;64964;48.694;21.206;2023-08-31T03:19:33;9.07;;;6.03;;
76194;SDS011;64964;48.694;21.206;2023-08-31T03:21:58;11.10;;;5.60;;
76194;SDS011;64964;48.694;21.206;2023-08-31T03:24:24;8.57;;;5.83;;
76194;SDS011;64964;48.694;21.206;2023-08-31T03:26:49;8.13;;;5.73;;
76194;SDS011;64964;48.694;21.206;2023-08-31T03:29:14;8.50;;;6.00;;
76194;SDS011;64964;48.694;21.206;2023-08-31T03:31:40;10.82;;;6.30;;
76194;SDS011;64964;48.694;21.206;2023-08-31T03:34:05;8.53;;;6.13;;
76194;SDS011;64964;48.694;21.206;2023-08-31T03:36:31;12.80;;;6.57;;
76194;SDS011;64964;48.694;21.206;2023-08-31T03:38:56;10.07;;;6.07;;
76194;SDS011;64964;48.694;21.206;2023-08-31T03:41:21;8.27;;;5.80;;
76194;SDS011;64964;48.694;21.206;2023-08-31T03:43:47;10.80;;;6.88;;
76194;SDS011;64964;48.694;21.206;2023-08-31T03:46:12;11.23;;;6.00;;
76194;SDS011;64964;48.694;21.206;2023-08-31T03:48:37;9.47;;;6.00;;
76194;SDS011;64964;48.694;21.206;2023-08-31T03:51:03;8.63;;;5.60;;
76194;SDS011;64964;48.694;21.206;2023-08-31T03:53:28;12.27;;;5.50;;
76194;SDS011;64964;48.694;21.206;2023-08-31T03:55:54;9.00;;;6.37;;
76194;SDS011;64964;48.694;21.206;2023-08-31T03:58:19;8.63;;;6.03;;
76194;SDS011;64964;48.694;21.206;2023-08-31T04:00:45;9.13;;;6.53;;
76194;SDS011;64964;48.694;21.206;2023-08-31T04:03:14;8.83;;;6.90;;
76194;SDS011;64964;48.694;21.206;2023-08-31T04:05:39;12.23;;;6.47;;
76194;SDS011;64964;48.694;21.206;2023-08-31T04:08:05;11.20;;;7.13;;
76194;SDS011;64964;48.694;21.206;2023-08-31T04:10:30;10.47;;;6.77;;
76194;SDS011;64964;48.694;21.206;2023-08-31T04:12:57;12.25;;;6.63;;
76194;SDS011;64964;48.694;21.206;2023-08-31T04:15:22;9.98;;;6.68;;
76194;SDS011;64964;48.694;21.206;2023-08-31T04:17:48;9.37;;;6.57;;
76194;SDS011;64964;48.694;21.206;2023-08-31T04:20:14;8.68;;;5.75;;
76194;SDS011;64964;48.694;21.206;2023-08-31T04:22:40;10.40;;;6.47;;
76194;SDS011;64964;48.694;21.206;2023-08-31T04:25:05;9.77;;;6.70;;
76194;SDS011;64964;48.694;21.206;2023-08-31T04:27:31;10.60;;;7.88;;
76194;SDS011;64964;48.694;21.206;2023-08-31T04:29:57;14.67;;;8.47;;
76194;SDS011;64964;48.694;21.206;2023-08-31T04:32:25;12.88;;;8.23;;
76194;SDS011;64964;48.694;21.206;2023-08-31T04:34:51;14.70;;;9.10;;
76194;SDS011;64964;48.694;21.206;2023-08-31T04:37:17;14.23;;;10.05;;
76194;SDS011;64964;48.694;21.206;2023-08-31T04:39:42;17.03;;;10.10;;
76194;SDS011;64964;48.694;21.206;2023-08-31T04:42:07;15.43;;;9.60;;
76194;SDS011;64964;48.694;21.206;2023-08-31T04:44:33;16.58;;;10.13;;
76194;SDS011;64964;48.694;21.206;2023-08-31T04:46:59;15.93;;;9.53;;
76194;SDS011;64964;48.694;21.206;2023-08-31T04:49:24;18.03;;;9.83;;
76194;SDS011;64964;48.694;21.206;2023-08-31T04:51:49;16.13;;;10.48;;
76194;SDS011;64964;48.694;21.206;2023-08-31T04:54:15;17.47;;;10.20;;
76194;SDS011;64964;48.694;21.206;2023-08-31T04:56:41;12.75;;;9.00;;
76194;SDS011;64964;48.694;21.206;2023-08-31T04:59:06;14.37;;;9.13;;
76194;SDS011;64964;48.694;21.206;2023-08-31T05:01:32;13.63;;;8.90;;
76194;SDS011;64964;48.694;21.206;2023-08-31T05:03:57;11.95;;;8.43;;
76194;SDS011;64964;48.694;21.206;2023-08-31T05:06:23;17.87;;;9.87;;
76194;SDS011;64964;48.694;21.206;2023-08-31T05:08:49;15.17;;;8.93;;
76194;SDS011;64964;48.694;21.206;2023-08-31T05:11:14;13.57;;;9.40;;
76194;SDS011;64964;48.694;21.206;2023-08-31T05:13:40;16.85;;;9.93;;
76194;SDS011;64964;48.694;21.206;2023-08-31T05:16:09;13.33;;;9.27;;
76194;SDS011;64964;48.694;21.206;2023-08-31T05:18:34;13.50;;;9.43;;
76194;SDS011;64964;48.694;21.206;2023-08-31T05:21:00;16.35;;;9.70;;
76194;SDS011;64964;48.694;21.206;2023-08-31T05:23:26;14.47;;;8.90;;
76194;SDS011;64964;48.694;21.206;2023-08-31T05:25:51;14.77;;;9.77;;
76194;SDS011;64964;48.694;21.206;2023-08-31T05:28:17;15.03;;;9.40;;
76194;SDS011;64964;48.694;21.206;2023-08-31T05:30:49;16.02;;;9.50;;
76194;SDS011;64964;48.694;21.206;2023-08-31T05:33:15;16.10;;;9.93;;
76194;SDS011;64964;48.694;21.206;2023-08-31T05:35:41;17.02;;;11.15;;
76194;SDS011;64964;48.694;21.206;2023-08-31T05:38:07;14.93;;;9.80;;
76194;SDS011;64964;48.694;21.206;2023-08-31T05:40:32;18.52;;;10.68;;
76194;SDS011;64964;48.694;21.206;2023-08-31T05:42:57;20.60;;;11.20;;
76194;SDS011;64964;48.694;21.206;2023-08-31T05:45:23;18.10;;;10.70;;
76194;SDS011;64964;48.694;21.206;2023-08-31T05:47:48;15.93;;;9.23;;
76194;SDS011;64964;48.694;21.206;2023-08-31T05:50:14;14.63;;;9.17;;
76194;SDS011;64964;48.694;21.206;2023-08-31T05:52:39;17.60;;;9.65;;
76194;SDS011;64964;48.694;21.206;2023-08-31T05:55:09;14.90;;;10.57;;
76194;SDS011;64964;48.694;21.206;2023-08-31T05:57:36;15.27;;;8.40;;
76194;SDS011;64964;48.694;21.206;2023-08-31T06:00:03;18.80;;;10.85;;
76194;SDS011;64964;48.694;21.206;2023-08-31T06:02:29;21.50;;;11.88;;
76194;SDS011;64964;48.694;21.206;2023-08-31T06:04:55;17.63;;;10.87;;
76194;SDS011;64964;48.694;21.206;2023-08-31T06:07:22;16.30;;;10.93;;
76194;SDS011;64964;48.694;21.206;2023-08-31T06:09:48;18.53;;;11.83;;
76194;SDS011;64964;48.694;21.206;2023-08-31T06:12:13;15.05;;;10.20;;
76194;SDS011;64964;48.694;21.206;2023-08-31T06:14:39;16.17;;;10.53;;
76194;SDS011;64964;48.694;21.206;2023-08-31T06:17:04;13.10;;;9.30;;
76194;SDS011;64964;48.694;21.206;2023-08-31T06:19:29;13.67;;;8.87;;
76194;SDS011;64964;48.694;21.206;2023-08-31T06:21:55;12.33;;;8.20;;
76194;SDS011;64964;48.694;21.206;2023-08-31T06:24:20;13.57;;;8.15;;
76194;SDS011;64964;48.694;21.206;2023-08-31T06:26:45;13.50;;;7.73;;
76194;SDS011;64964;48.694;21.206;2023-08-31T06:29:10;11.10;;;7.17;;
76194;SDS011;64964;48.694;21.206;2023-08-31T06:31:36;12.17;;;7.47;;
76194;SDS011;64964;48.694;21.206;2023-08-31T06:34:01;9.50;;;6.53;;
76194;SDS011;64964;48.694;21.206;2023-08-31T06:36:28;12.07;;;7.50;;
76194;SDS011;64964;48.694;21.206;2023-08-31T06:38:54;10.30;;;7.07;;
76194;SDS011;64964;48.694;21.206;2023-08-31T06:41:19;11.97;;;8.30;;
76194;SDS011;64964;48.694;21.206;2023-08-31T06:43:44;11.57;;;7.60;;
76194;SDS011;64964;48.694;21.206;2023-08-31T06:46:11;10.40;;;7.50;;
76194;SDS011;64964;48.694;21.206;2023-08-31T06:48:36;9.73;;;7.17;;
76194;SDS011;64964;48.694;21.206;2023-08-31T06:51:01;10.23;;;7.23;;
76194;SDS011;64964;48.694;21.206;2023-08-31T06:53:28;12.18;;;7.95;;
76194;SDS011;64964;48.694;21.206;2023-08-31T06:55:54;9.60;;;6.20;;
76194;SDS011;64964;48.694;21.206;2023-08-31T06:58:19;9.97;;;6.23;;
76194;SDS011;64964;48.694;21.206;2023-08-31T07:00:45;8.87;;;6.67;;
76194;SDS011;64964;48.694;21.206;2023-08-31T07:03:11;8.50;;;6.20;;
76194;SDS011;64964;48.694;21.206;2023-08-31T07:05:36;9.50;;;6.00;;
76194;SDS011;64964;48.694;21.206;2023-08-31T07:08:07;8.98;;;5.53;;
76194;SDS011;64964;48.694;21.206;2023-08-31T07:10:33;9.30;;;5.75;;
76194;SDS011;64964;48.694;21.206;2023-08-31T07:13:01;6.33;;;4.73;;
76194;SDS011;64964;48.694;21.206;2023-08-31T07:15:26;5.57;;;4.78;;
76194;SDS011;64964;48.694;21.206;2023-08-31T07:17:52;7.27;;;5.20;;
76194;SDS011;64964;48.694;21.206;2023-08-31T07:20:17;7.83;;;4.53;;
76194;SDS011;64964;48.694;21.206;2023-08-31T07:22:42;7.90;;;4.70;;
76194;SDS011;64964;48.694;21.206;2023-08-31T07:25:08;6.13;;;4.45;;
76194;SDS011;64964;48.694;21.206;2023-08-31T07:27:33;6.53;;;4.57;;
76194;SDS011;64964;48.694;21.206;2023-08-31T07:29:59;6.73;;;5.17;;
76194;SDS011;64964;48.694;21.206;2023-08-31T07:32:24;5.40;;;4.80;;
76194;SDS011;64964;48.694;21.206;2023-08-31T07:34:49;6.97;;;4.35;;
76194;SDS011;64964;48.694;21.206;2023-08-31T07:37:15;7.93;;;4.40;;
76194;SDS011;64964;48.694;21.206;2023-08-31T07:39:40;6.60;;;4.60;;
76194;SDS011;64964;48.694;21.206;2023-08-31T07:42:05;5.83;;;4.50;;
76194;SDS011;64964;48.694;21.206;2023-08-31T07:44:31;5.15;;;4.22;;
76194;SDS011;64964;48.694;21.206;2023-08-31T07:46:57;7.23;;;4.40;;
76194;SDS011;64964;48.694;21.206;2023-08-31T07:49:22;6.00;;;4.60;;
76194;SDS011;64964;48.694;21.206;2023-08-31T07:51:48;5.78;;;4.88;;
76194;SDS011;64964;48.694;21.206;2023-08-31T07:54:22;6.27;;;4.63;;
76194;SDS011;64964;48.694;21.206;2023-08-31T07:56:48;6.80;;;5.15;;
76194;SDS011;64964;48.694;21.206;2023-08-31T07:59:13;6.10;;;4.40;;
76194;SDS011;64964;48.694;21.206;2023-08-31T08:01:39;5.77;;;4.60;;
76194;SDS011;64964;48.694;21.206;2023-08-31T08:04:06;6.40;;;4.25;;
76194;SDS011;64964;48.694;21.206;2023-08-31T08:06:31;5.20;;;4.17;;
76194;SDS011;64964;48.694;21.206;2023-08-31T08:08:56;6.17;;;4.60;;
76194;SDS011;64964;48.694;21.206;2023-08-31T08:11:22;4.97;;;4.23;;
76194;SDS011;64964;48.694;21.206;2023-08-31T08:13:47;7.32;;;4.10;;
76194;SDS011;64964;48.694;21.206;2023-08-31T08:16:13;6.23;;;3.97;;
76194;SDS011;64964;48.694;21.206;2023-08-31T08:18:39;6.68;;;3.90;;
76194;SDS011;64964;48.694;21.206;2023-08-31T08:21:05;11.27;;;5.50;;
76194;SDS011;64964;48.694;21.206;2023-08-31T08:23:30;10.10;;;6.40;;
76194;SDS011;64964;48.694;21.206;2023-08-31T08:25:55;8.68;;;5.00;;
76194;SDS011;64964;48.694;21.206;2023-08-31T08:28:21;6.87;;;4.67;;
76194;SDS011;64964;48.694;21.206;2023-08-31T08:30:46;6.80;;;4.53;;
76194;SDS011;64964;48.694;21.206;2023-08-31T08:33:12;6.27;;;4.30;;
76194;SDS011;64964;48.694;21.206;2023-08-31T08:35:37;4.93;;;3.90;;
76194;SDS011;64964;48.694;21.206;2023-08-31T08:38:04;6.88;;;4.70;;
76194;SDS011;64964;48.694;21.206;2023-08-31T08:40:33;6.40;;;5.00;;
76194;SDS011;64964;48.694;21.206;2023-08-31T08:43:00;5.88;;;4.65;;
76194;SDS011;64964;48.694;21.206;2023-08-31T08:45:26;7.88;;;5.68;;
76194;SDS011;64964;48.694;21.206;2023-08-31T08:48:01;7.88;;;5.07;;
76194;SDS011;64964;48.694;21.206;2023-08-31T08:50:30;7.60;;;4.85;;
76194;SDS011;64964;48.694;21.206;2023-08-31T08:52:59;7.23;;;5.37;;
76194;SDS011;64964;48.694;21.206;2023-08-31T08:55:24;7.18;;;5.40;;
76194;SDS011;64964;48.694;21.206;2023-08-31T08:57:50;6.73;;;4.40;;
76194;SDS011;64964;48.694;21.206;2023-08-31T09:00:15;6.17;;;4.47;;
76194;SDS011;64964;48.694;21.206;2023-08-31T09:02:41;5.00;;;4.20;;
76194;SDS011;64964;48.694;21.206;2023-08-31T09:05:06;7.07;;;4.23;;
76194;SDS011;64964;48.694;21.206;2023-08-31T09:07:34;5.55;;;3.90;;
76194;SDS011;64964;48.694;21.206;2023-08-31T09:10:01;3.70;;;3.17;;
76194;SDS011;64964;48.694;21.206;2023-08-31T09:12:28;4.60;;;3.50;;
76194;SDS011;64964;48.694;21.206;2023-08-31T09:14:58;4.70;;;3.53;;
76194;SDS011;64964;48.694;21.206;2023-08-31T09:17:23;9.35;;;5.10;;
76194;SDS011;64964;48.694;21.206;2023-08-31T09:20:00;8.32;;;5.40;;
76194;SDS011;64964;48.694;21.206;2023-08-31T09:22:26;5.10;;;4.00;;
76194;SDS011;64964;48.694;21.206;2023-08-31T09:24:51;6.63;;;4.38;;
76194;SDS011;64964;48.694;21.206;2023-08-31T09:27:17;6.80;;;5.47;;
76194;SDS011;64964;48.694;21.206;2023-08-31T09:29:45;13.88;;;6.15;;
76194;SDS011;64964;48.694;21.206;2023-08-31T09:32:15;14.20;;;7.65;;
76194;SDS011;64964;48.694;21.206;2023-08-31T09:34:42;11.98;;;6.47;;
76194;SDS011;64964;48.694;21.206;2023-08-31T09:37:08;12.37;;;7.07;;
76194;SDS011;64964;48.694;21.206;2023-08-31T09:39:37;14.07;;;8.35;;
76194;SDS011;64964;48.694;21.206;2023-08-31T09:42:04;12.53;;;7.90;;
76194;SDS011;64964;48.694;21.206;2023-08-31T09:44:29;9.45;;;6.38;;
76194;SDS011;64964;48.694;21.206;2023-08-31T09:46:55;11.80;;;6.90;;
76194;SDS011;64964;48.694;21.206;2023-08-31T09:49:21;9.40;;;5.88;;
76194;SDS011;64964;48.694;21.206;2023-08-31T09:51:50;11.60;;;6.55;;
76194;SDS011;64964;48.694;21.206;2023-08-31T09:54:17;7.70;;;4.03;;
76194;SDS011;64964;48.694;21.206;2023-08-31T09:56:45;6.30;;;4.70;;
76194;SDS011;64964;48.694;21.206;2023-08-31T09:59:11;8.70;;;5.40;;
76194;SDS011;64964;48.694;21.206;2023-08-31T10:01:38;7.03;;;4.60;;
76194;SDS011;64964;48.694;21.206;2023-08-31T10:04:04;8.60;;;5.97;;
76194;SDS011;64964;48.694;21.206;2023-08-31T10:06:31;9.70;;;5.33;;
76194;SDS011;64964;48.694;21.206;2023-08-31T10:08:57;9.05;;;6.25;;
76194;SDS011;64964;48.694;21.206;2023-08-31T10:11:24;6.88;;;5.00;;
76194;SDS011;64964;48.694;21.206;2023-08-31T10:13:50;8.68;;;6.07;;
76194;SDS011;64964;48.694;21.206;2023-08-31T10:16:18;4.57;;;3.55;;
76194;SDS011;64964;48.694;21.206;2023-08-31T10:18:45;5.77;;;4.20;;
76194;SDS011;64964;48.694;21.206;2023-08-31T10:21:10;7.43;;;4.97;;
76194;SDS011;64964;48.694;21.206;2023-08-31T10:23:47;6.13;;;4.82;;
76194;SDS011;64964;48.694;21.206;2023-08-31T10:26:23;7.97;;;4.82;;
76194;SDS011;64964;48.694;21.206;2023-08-31T10:28:50;6.63;;;5.20;;
76194;SDS011;64964;48.694;21.206;2023-08-31T10:31:16;6.53;;;5.07;;
76194;SDS011;64964;48.694;21.206;2023-08-31T10:33:55;6.68;;;4.65;;
76194;SDS011;64964;48.694;21.206;2023-08-31T10:36:38;4.88;;;4.30;;
76194;SDS011;64964;48.694;21.206;2023-08-31T10:39:06;5.75;;;4.75;;
76194;SDS011;64964;48.694;21.206;2023-08-31T10:41:37;7.20;;;5.37;;
76194;SDS011;64964;48.694;21.206;2023-08-31T10:44:02;6.70;;;4.68;;
76194;SDS011;64964;48.694;21.206;2023-08-31T10:46:43;7.97;;;5.30;;
76194;SDS011;64964;48.694;21.206;2023-08-31T10:51:35;5.30;;;3.53;;
76194;SDS011;64964;48.694;21.206;2023-08-31T10:56:42;7.27;;;5.13;;
76194;SDS011;64964;48.694;21.206;2023-08-31T10:59:16;6.88;;;5.22;;
76194;SDS011;64964;48.694;21.206;2023-08-31T11:01:58;9.15;;;6.68;;
76194;SDS011;64964;48.694;21.206;2023-08-31T11:04:26;8.27;;;6.43;;
76194;SDS011;64964;48.694;21.206;2023-08-31T11:09:37;12.45;;;7.07;;
76194;SDS011;64964;48.694;21.206;2023-08-31T11:12:03;8.53;;;7.00;;
76194;SDS011;64964;48.694;21.206;2023-08-31T11:14:28;9.35;;;6.82;;
76194;SDS011;64964;48.694;21.206;2023-08-31T11:16:54;8.43;;;7.00;;
76194;SDS011;64964;48.694;21.206;2023-08-31T11:19:20;9.57;;;7.07;;
76194;SDS011;64964;48.694;21.206;2023-08-31T11:21:45;8.33;;;5.67;;
76194;SDS011;64964;48.694;21.206;2023-08-31T11:24:11;3.22;;;2.92;;
76194;SDS011;64964;48.694;21.206;2023-08-31T11:26:36;4.33;;;3.50;;
76194;SDS011;64964;48.694;21.206;2023-08-31T11:29:05;1.60;;;1.30;;
76194;SDS011;64964;48.694;21.206;2023-08-31T11:31:32;1.35;;;1.23;;
76194;SDS011;64964;48.694;21.206;2023-08-31T11:33:58;1.57;;;1.40;;
76194;SDS011;64964;48.694;21.206;2023-08-31T11:36:23;1.10;;;1.10;;
76194;SDS011;64964;48.694;21.206;2023-08-31T11:38:49;0.80;;;0.80;;
76194;SDS011;64964;48.694;21.206;2023-08-31T11:41:15;1.05;;;0.80;;
76194;SDS011;64964;48.694;21.206;2023-08-31T11:43:42;0.82;;;0.60;;
76194;SDS011;64964;48.694;21.206;2023-08-31T11:46:08;1.27;;;0.70;;
76194;SDS011;64964;48.694;21.206;2023-08-31T11:48:34;0.93;;;0.80;;
76194;SDS011;64964;48.694;21.206;2023-08-31T11:51:00;2.40;;;0.73;;
76194;SDS011;64964;48.694;21.206;2023-08-31T11:53:26;0.85;;;0.80;;
76194;SDS011;64964;48.694;21.206;2023-08-31T11:55:52;1.07;;;0.60;;
76194;SDS011;64964;48.694;21.206;2023-08-31T11:58:21;0.95;;;0.60;;
76194;SDS011;64964;48.694;21.206;2023-08-31T12:00:58;0.60;;;0.60;;
76194;SDS011;64964;48.694;21.206;2023-08-31T12:03:24;1.50;;;0.70;;
76194;SDS011;64964;48.694;21.206;2023-08-31T12:05:51;0.60;;;0.60;;
76194;SDS011;64964;48.694;21.206;2023-08-31T12:08:26;0.83;;;0.57;;
76194;SDS011;64964;48.694;21.206;2023-08-31T12:10:52;1.40;;;0.70;;
76194;SDS011;64964;48.694;21.206;2023-08-31T12:13:18;2.53;;;0.70;;
76194;SDS011;64964;48.694;21.206;2023-08-31T12:15:44;0.60;;;0.60;;
76194;SDS011;64964;48.694;21.206;2023-08-31T12:18:10;1.65;;;0.80;;
76194;SDS011;64964;48.694;21.206;2023-08-31T12:20:46;3.42;;;0.70;;
76194;SDS011;64964;48.694;21.206;2023-08-31T12:23:12;1.77;;;0.70;;
76194;SDS011;64964;48.694;21.206;2023-08-31T12:25:46;0.77;;;0.77;;
76194;SDS011;64964;48.694;21.206;2023-08-31T12:28:22;1.25;;;0.60;;
76194;SDS011;64964;48.694;21.206;2023-08-31T12:30:48;2.45;;;0.80;;
76194;SDS011;64964;48.694;21.206;2023-08-31T12:33:15;1.50;;;0.80;;
76194;SDS011;64964;48.694;21.206;2023-08-31T12:35:45;0.95;;;0.60;;
76194;SDS011;64964;48.694;21.206;2023-08-31T12:38:11;0.90;;;0.83;;
76194;SDS011;64964;48.694;21.206;2023-08-31T12:40:36;1.00;;;0.77;;
76194;SDS011;64964;48.694;21.206;2023-08-31T12:43:08;0.82;;;0.75;;
76194;SDS011;64964;48.694;21.206;2023-08-31T12:45:34;1.27;;;0.90;;
76194;SDS011;64964;48.694;21.206;2023-08-31T12:48:01;0.80;;;0.70;;
76194;SDS011;64964;48.694;21.206;2023-08-31T12:50:29;1.02;;;0.80;;
76194;SDS011;64964;48.694;21.206;2023-08-31T12:52:54;1.00;;;0.70;;
76194;SDS011;64964;48.694;21.206;2023-08-31T12:55:20;1.10;;;0.70;;
76194;SDS011;64964;48.694;21.206;2023-08-31T12:57:45;2.47;;;0.90;;
76194;SDS011;64964;48.694;21.206;2023-08-31T13:00:11;1.70;;;0.87;;
76194;SDS011;64964;48.694;21.206;2023-08-31T13:02:40;1.13;;;0.70;;
76194;SDS011;64964;48.694;21.206;2023-08-31T13:05:09;1.10;;;0.70;;
76194;SDS011;64964;48.694;21.206;2023-08-31T13:07:35;2.60;;;0.90;;
76194;SDS011;64964;48.694;21.206;2023-08-31T13:10:03;1.65;;;0.90;;
76194;SDS011;64964;48.694;21.206;2023-08-31T13:12:32;1.50;;;0.70;;
76194;SDS011;64964;48.694;21.206;2023-08-31T13:14:58;1.48;;;0.80;;
76194;SDS011;64964;48.694;21.206;2023-08-31T13:17:25;0.80;;;0.80;;
76194;SDS011;64964;48.694;21.206;2023-08-31T13:19:52;0.80;;;0.75;;
76194;SDS011;64964;48.694;21.206;2023-08-31T13:22:18;1.08;;;0.80;;
76194;SDS011;64964;48.694;21.206;2023-08-31T13:24:44;1.67;;;0.90;;
76194;SDS011;64964;48.694;21.206;2023-08-31T13:27:09;0.93;;;0.70;;
76194;SDS011;64964;48.694;21.206;2023-08-31T13:29:34;0.77;;;0.60;;
76194;SDS011;64964;48.694;21.206;2023-08-31T13:32:00;2.47;;;1.00;;
76194;SDS011;64964;48.694;21.206;2023-08-31T13:34:26;1.33;;;0.80;;
76194;SDS011;64964;48.694;21.206;2023-08-31T13:36:51;1.58;;;0.73;;
76194;SDS011;64964;48.694;21.206;2023-08-31T13:39:16;1.63;;;0.80;;
76194;SDS011;64964;48.694;21.206;2023-08-31T13:41:42;1.77;;;0.93;;
76194;SDS011;64964;48.694;21.206;2023-08-31T13:44:07;1.00;;;0.97;;
76194;SDS011;64964;48.694;21.206;2023-08-31T13:46:32;1.10;;;1.00;;
76194;SDS011;64964;48.694;21.206;2023-08-31T13:48:58;0.93;;;0.60;;
76194;SDS011;64964;48.694;21.206;2023-08-31T13:51:23;2.10;;;0.70;;
76194;SDS011;64964;48.694;21.206;2023-08-31T13:53:48;1.40;;;1.00;;
76194;SDS011;64964;48.694;21.206;2023-08-31T13:56:14;1.20;;;0.90;;
76194;SDS011;64964;48.694;21.206;2023-08-31T13:58:39;2.43;;;0.80;;
76194;SDS011;64964;48.694;21.206;2023-08-31T14:01:06;2.45;;;0.70;;
76194;SDS011;64964;48.694;21.206;2023-08-31T14:03:31;1.27;;;0.80;;
76194;SDS011;64964;48.694;21.206;2023-08-31T14:05:56;1.08;;;0.90;;
76194;SDS011;64964;48.694;21.206;2023-08-31T14:08:22;1.63;;;0.90;;
76194;SDS011;64964;48.694;21.206;2023-08-31T14:10:47;0.87;;;0.80;;
76194;SDS011;64964;48.694;21.206;2023-08-31T14:13:13;2.27;;;1.00;;
76194;SDS011;64964;48.694;21.206;2023-08-31T14:15:38;3.42;;;0.90;;
76194;SDS011;64964;48.694;21.206;2023-08-31T14:18:11;0.80;;;0.70;;
76194;SDS011;64964;48.694;21.206;2023-08-31T14:20:37;1.17;;;0.70;;
76194;SDS011;64964;48.694;21.206;2023-08-31T14:23:03;2.70;;;1.00;;
76194;SDS011;64964;48.694;21.206;2023-08-31T14:25:29;2.65;;;1.00;;
76194;SDS011;64964;48.694;21.206;2023-08-31T14:27:58;1.27;;;0.90;;
76194;SDS011;64964;48.694;21.206;2023-08-31T14:30:23;1.13;;;0.90;;
76194;SDS011;64964;48.694;21.206;2023-08-31T14:32:48;1.33;;;1.10;;
76194;SDS011;64964;48.694;21.206;2023-08-31T14:35:14;1.73;;;0.93;;
76194;SDS011;64964;48.694;21.206;2023-08-31T14:37:39;0.80;;;0.80;;